createdAt,value
2022-09-06T00:00:58.875Z,75.31
2022-09-06T00:03:28.144Z,75.33
2022-09-06T00:05:55.289Z,75.27
2022-09-06T00:08:22.407Z,75.20
2022-09-06T00:11:00.897Z,75.57
2022-09-06T00:13:28.452Z,75.79
2022-09-06T00:15:55.682Z,75.45
2022-09-06T00:18:22.970Z,75.41
2022-09-06T00:20:50.089Z,75.41
2022-09-06T00:23:17.208Z,75.47
2022-09-06T00:25:44.275Z,76.03
2022-09-06T00:28:11.429Z,75.67
2022-09-06T00:30:38.532Z,76.03
2022-09-06T00:33:05.592Z,75.76
2022-09-06T00:35:32.777Z,75.92
2022-09-06T00:38:00.880Z,76.13
2022-09-06T00:40:29.528Z,76.06
2022-09-06T00:42:57.656Z,76.46
2022-09-06T00:45:25.730Z,76.27
2022-09-06T00:47:52.915Z,76.07
2022-09-06T00:50:20.327Z,76.23
2022-09-06T00:52:48.673Z,76.79
2022-09-06T00:55:16.280Z,77.31
2022-09-06T00:57:43.908Z,77.25
2022-09-06T01:00:11.253Z,77.28
2022-09-06T01:02:38.430Z,77.68
2022-09-06T01:05:06.241Z,77.78
2022-09-06T01:08:02.791Z,77.96
2022-09-06T01:10:48.438Z,78.30
2022-09-06T01:13:35.873Z,77.97
2022-09-06T01:16:10.192Z,79.27
2022-09-06T01:18:43.271Z,79.49
2022-09-06T01:21:17.083Z,79.68
2022-09-06T01:23:50.135Z,80.29
2022-09-06T01:26:27.251Z,79.98
2022-09-06T01:28:54.721Z,80.02
2022-09-06T01:31:38.721Z,79.48
2022-09-06T01:34:05.730Z,79.76
2022-09-06T01:36:45.795Z,80.13
2022-09-06T01:39:29.363Z,80.54
2022-09-06T01:41:57.793Z,80.21
2022-09-06T01:44:26.181Z,80.48
2022-09-06T01:46:56.529Z,81.18
2022-09-06T01:49:29.757Z,80.94
2022-09-06T01:51:59.772Z,80.96
2022-09-06T01:54:33.148Z,81.20
2022-09-06T01:57:03.033Z,80.70
2022-09-06T01:59:48.595Z,80.82
2022-09-06T02:02:24.972Z,81.64
2022-09-06T02:05:01.441Z,81.47
2022-09-06T02:07:29.657Z,82.15
2022-09-06T02:09:59.811Z,82.17
2022-09-06T02:12:27.908Z,82.27
2022-09-06T02:15:03.011Z,82.49
2022-09-06T02:17:35.515Z,82.54
2022-09-06T02:20:06.670Z,82.98
2022-09-06T02:22:37.747Z,83.11
2022-09-06T02:25:07.460Z,83.52
2022-09-06T02:27:34.765Z,83.62
2022-09-06T02:30:03.133Z,84.36
2022-09-06T02:32:32.739Z,84.36
2022-09-06T02:34:59.922Z,85.26
2022-09-06T02:37:27.230Z,84.92
2022-09-06T02:39:55.436Z,85.67
2022-09-06T02:42:23.097Z,85.07
2022-09-06T02:44:50.177Z,85.11
2022-09-06T02:47:17.357Z,85.37
2022-09-06T02:49:44.430Z,85.48
2022-09-06T02:52:11.962Z,85.36
2022-09-06T02:57:34.706Z,85.61
2022-09-06T03:00:01.939Z,85.76
2022-09-06T03:02:29.016Z,86.46
2022-09-06T03:04:56.172Z,86.22
2022-09-06T03:07:23.250Z,86.31
2022-09-06T03:09:50.335Z,86.12
2022-09-06T03:12:17.474Z,86.94
2022-09-06T03:14:44.480Z,86.81
2022-09-06T03:17:11.542Z,86.69
2022-09-06T03:19:38.557Z,87.04
2022-09-06T03:22:05.648Z,87.32
2022-09-06T03:24:32.671Z,86.69
2022-09-06T03:26:59.893Z,86.71
2022-09-06T03:29:26.917Z,87.17
2022-09-06T03:31:54.018Z,87.33
2022-09-06T03:34:21.069Z,88.23
2022-09-06T03:36:48.100Z,89.01
2022-09-06T03:39:15.199Z,89.60
2022-09-06T03:41:42.269Z,89.16
2022-09-06T03:44:09.322Z,88.74
2022-09-06T03:46:36.477Z,90.06
2022-09-06T03:49:03.548Z,89.48
2022-09-06T03:51:30.643Z,88.93
2022-09-06T03:53:57.792Z,89.43
2022-09-06T03:56:24.960Z,89.81
2022-09-06T03:58:52.006Z,89.77
2022-09-06T04:01:19.179Z,90.30
2022-09-06T04:03:46.568Z,90.41
2022-09-06T04:06:13.692Z,90.21
2022-09-06T04:08:40.821Z,91.16
2022-09-06T04:11:07.924Z,92.15
2022-09-06T04:13:35.931Z,92.23
2022-09-06T04:16:03.743Z,91.66
2022-09-06T04:18:31.196Z,92.07
2022-09-06T04:20:58.383Z,93.52
2022-09-06T04:23:26.289Z,94.79
2022-09-06T04:25:54.392Z,94.81
2022-09-06T04:28:21.837Z,93.93
2022-09-06T04:30:52.969Z,93.33
2022-09-06T04:33:20.608Z,93.16
2022-09-06T04:35:50.693Z,93.07
2022-09-06T04:38:17.763Z,92.63
2022-09-06T04:40:44.864Z,93.10
2022-09-06T04:43:11.932Z,93.06
2022-09-06T04:45:39.085Z,93.87
2022-09-06T04:48:06.218Z,94.31
2022-09-06T04:50:33.285Z,94.65
2022-09-06T04:53:05.816Z,95.19
2022-09-06T04:55:33.966Z,95.47
2022-09-06T04:58:01.454Z,95.21
2022-09-06T05:00:28.699Z,94.65
2022-09-06T05:02:55.903Z,94.44
2022-09-06T05:05:23.298Z,95.28
2022-09-06T05:07:53.887Z,96.09
2022-09-06T05:10:21.517Z,96.04
2022-09-06T05:12:52.300Z,95.75
2022-09-06T05:15:20.277Z,94.97
2022-09-06T05:17:47.361Z,95.49
2022-09-06T05:20:15.364Z,95.68
2022-09-06T05:22:42.433Z,97.07
2022-09-06T05:25:10.000Z,96.39
2022-09-06T05:27:37.138Z,96.97
2022-09-06T05:30:04.609Z,97.32
2022-09-06T05:32:31.661Z,98.51
2022-09-06T05:34:58.775Z,99.73
2022-09-06T05:37:25.787Z,99.65
2022-09-06T05:39:53.010Z,99.77
2022-09-06T05:42:20.085Z,99.45
2022-09-06T05:44:47.213Z,99.63
2022-09-06T05:47:14.297Z,100.00
2022-09-06T05:49:41.548Z,99.76
2022-09-06T05:52:08.651Z,99.45
2022-09-06T05:54:35.667Z,100.00
2022-09-06T05:57:02.776Z,99.95
2022-09-06T05:59:29.851Z,100.00
2022-09-06T06:01:56.976Z,100.00
2022-09-06T06:04:24.100Z,100.00
2022-09-06T06:06:51.274Z,100.00
2022-09-06T06:09:18.468Z,100.00
2022-09-06T06:11:45.566Z,100.00
2022-09-06T06:14:12.675Z,100.00
2022-09-06T06:16:39.789Z,100.00
2022-09-06T06:19:06.925Z,100.00
2022-09-06T06:21:34.180Z,100.00
2022-09-06T06:24:02.356Z,100.00
2022-09-06T06:26:31.647Z,100.00
2022-09-06T06:29:01.832Z,100.00
2022-09-06T06:31:29.471Z,100.00
2022-09-06T06:33:56.678Z,100.00
2022-09-06T06:36:25.025Z,100.00
2022-09-06T06:38:54.160Z,100.00
2022-09-06T06:41:24.045Z,100.00
2022-09-06T06:44:01.883Z,99.50
2022-09-06T06:46:31.243Z,99.49
2022-09-06T06:48:58.456Z,99.80
2022-09-06T06:51:30.093Z,99.77
2022-09-06T06:53:57.213Z,100.00
2022-09-06T06:56:24.357Z,100.00
2022-09-06T06:58:52.778Z,100.00
2022-09-06T07:01:20.921Z,100.00
2022-09-06T07:03:48.399Z,100.00
2022-09-06T07:06:15.947Z,100.00
2022-09-06T07:08:43.139Z,100.00
2022-09-06T07:11:11.643Z,100.00
2022-09-06T07:13:39.273Z,100.00
2022-09-06T07:16:17.638Z,100.00
2022-09-06T07:18:45.866Z,100.00
2022-09-06T07:26:31.633Z,99.51
2022-09-06T07:29:00.464Z,99.42
2022-09-06T07:34:16.023Z,98.87
2022-09-06T07:36:43.143Z,99.13
2022-09-06T07:39:10.223Z,97.13
2022-09-06T07:41:37.327Z,97.71
2022-09-06T07:44:04.441Z,97.66
2022-09-06T07:46:31.594Z,97.25
2022-09-06T07:48:58.772Z,94.47
2022-09-06T07:51:25.814Z,94.42
2022-09-06T07:54:06.903Z,94.37
2022-09-06T07:56:41.072Z,91.52
2022-09-06T07:59:08.157Z,92.39
2022-09-06T08:01:36.644Z,91.28
2022-09-06T08:04:10.794Z,91.18
2022-09-06T08:09:25.834Z,89.46
2022-09-06T08:11:52.987Z,88.27
2022-09-06T08:14:20.377Z,88.47
2022-09-06T08:16:47.593Z,88.12
2022-09-06T08:19:14.723Z,86.13
2022-09-06T08:21:41.752Z,86.00
2022-09-06T08:24:12.117Z,85.37
2022-09-06T08:26:48.315Z,85.61
2022-09-06T08:29:15.522Z,84.05
2022-09-06T08:31:43.491Z,84.62
2022-09-06T08:34:12.635Z,83.73
2022-09-06T08:36:40.045Z,83.00
2022-09-06T08:39:09.088Z,82.59
2022-09-06T08:41:54.843Z,81.93
2022-09-06T08:44:57.042Z,82.18
2022-09-06T08:47:25.068Z,79.50
2022-09-06T08:49:54.847Z,79.44
2022-09-06T08:52:49.324Z,79.33
2022-09-06T08:55:40.563Z,78.70
2022-09-06T08:58:24.952Z,76.75
2022-09-06T09:01:01.070Z,76.63
2022-09-06T09:03:36.817Z,76.73
2022-09-06T09:06:06.034Z,75.74
2022-09-06T09:08:44.362Z,73.43
2022-09-06T09:11:29.911Z,72.21
2022-09-06T09:14:02.234Z,73.81
2022-09-06T09:16:29.397Z,74.04
2022-09-06T09:18:59.171Z,74.03
2022-09-06T09:21:31.230Z,73.82
2022-09-06T09:23:59.464Z,73.15
2022-09-06T09:26:28.214Z,72.04
2022-09-06T09:29:02.289Z,72.72
2022-09-06T09:31:39.588Z,72.36
2022-09-06T09:34:10.886Z,72.51
2022-09-06T09:36:38.513Z,71.52
2022-09-06T09:39:09.597Z,71.34
2022-09-06T09:41:38.488Z,71.22
2022-09-06T09:44:07.405Z,70.66
2022-09-06T09:46:43.978Z,70.51
2022-09-06T09:49:15.162Z,69.04
2022-09-06T09:52:03.115Z,69.59
2022-09-06T09:54:31.195Z,69.59
2022-09-06T09:56:58.446Z,68.41
2022-09-06T09:59:25.644Z,68.65
2022-09-06T10:01:57.532Z,68.36
2022-09-06T10:04:46.223Z,67.94
2022-09-06T10:07:15.027Z,67.57
2022-09-06T10:09:43.887Z,66.04
2022-09-06T10:12:16.826Z,66.27
2022-09-06T10:14:44.929Z,66.05
2022-09-06T10:17:20.097Z,64.51
2022-09-06T10:19:48.184Z,63.95
2022-09-06T10:22:44.637Z,64.38
2022-09-06T10:25:37.060Z,62.11
2022-09-06T10:28:16.249Z,59.76
2022-09-06T10:30:48.107Z,58.91
2022-09-06T10:33:24.906Z,60.24
2022-09-06T10:35:52.402Z,59.64
2022-09-06T10:38:32.383Z,60.13
2022-09-06T10:41:14.299Z,58.47
2022-09-06T10:43:50.512Z,57.53
2022-09-06T10:46:21.602Z,56.00
2022-09-06T10:48:48.862Z,57.22
2022-09-06T10:51:30.337Z,57.15
2022-09-06T10:54:06.628Z,58.61
2022-09-06T10:56:33.675Z,57.41
2022-09-06T11:02:01.852Z,56.76
2022-09-06T11:07:38.153Z,54.70
2022-09-06T11:10:11.311Z,55.64
2022-09-06T11:12:48.252Z,53.03
2022-09-06T11:15:16.449Z,54.23
2022-09-06T11:17:47.790Z,54.01
2022-09-06T11:20:22.584Z,54.52
2022-09-06T11:23:08.436Z,54.36
2022-09-06T11:25:35.461Z,53.90
2022-09-06T11:28:05.496Z,54.65
2022-09-06T11:30:33.440Z,55.04
2022-09-06T11:33:11.719Z,54.97
2022-09-06T11:35:41.185Z,53.89
2022-09-06T11:38:14.048Z,53.58
2022-09-06T11:40:43.055Z,51.80
2022-09-06T11:43:10.111Z,51.24
2022-09-06T11:45:43.194Z,51.65
2022-09-06T11:48:26.559Z,52.59
2022-09-06T11:50:53.851Z,53.33
2022-09-06T11:53:22.255Z,51.93
2022-09-06T11:55:51.256Z,51.84
2022-09-06T11:58:18.230Z,51.58
2022-09-06T12:00:46.203Z,52.29
2022-09-06T12:06:28.663Z,53.00
2022-09-06T12:08:55.958Z,52.32
2022-09-06T12:11:30.316Z,52.00
2022-09-06T12:14:16.495Z,51.18
2022-09-06T12:16:55.592Z,51.67
2022-09-06T12:19:44.105Z,51.15
2022-09-06T12:22:30.169Z,51.58
2022-09-06T12:24:59.807Z,51.42
2022-09-06T12:27:29.379Z,52.64
2022-09-06T12:30:01.725Z,50.24
2022-09-06T12:32:36.221Z,50.05
2022-09-06T12:38:00.460Z,51.44
2022-09-06T12:40:29.581Z,51.48
2022-09-06T12:42:56.768Z,52.47
2022-09-06T12:45:27.513Z,52.25
2022-09-06T12:48:08.849Z,53.19
2022-09-06T12:50:36.447Z,52.10
2022-09-06T12:53:04.573Z,50.60
2022-09-06T12:55:32.707Z,51.16
2022-09-06T12:58:01.376Z,49.78
2022-09-06T13:00:48.727Z,50.38
2022-09-06T13:03:18.841Z,50.39
2022-09-06T13:05:46.311Z,48.61
2022-09-06T13:08:15.174Z,49.32
2022-09-06T13:10:43.855Z,49.79
2022-09-06T13:13:11.444Z,49.44
2022-09-06T13:15:38.966Z,49.00
2022-09-06T13:18:20.288Z,49.34
2022-09-06T13:20:57.553Z,49.89
2022-09-06T13:23:24.873Z,49.58
2022-09-06T13:25:53.406Z,50.01
2022-09-06T13:28:28.390Z,50.18
2022-09-06T13:31:22.086Z,49.31
2022-09-06T13:33:59.227Z,48.03
2022-09-06T13:36:30.979Z,48.95
2022-09-06T13:38:59.885Z,48.43
2022-09-06T13:41:26.987Z,48.99
2022-09-06T13:44:05.997Z,48.92
2022-09-06T13:46:33.621Z,48.92
2022-09-06T13:49:00.716Z,48.85
2022-09-06T13:51:27.919Z,47.28
2022-09-06T13:54:05.258Z,47.82
2022-09-06T13:56:32.454Z,47.60
2022-09-06T13:58:59.704Z,47.85
2022-09-06T14:01:26.867Z,47.32
2022-09-06T14:03:54.771Z,47.35
2022-09-06T14:06:21.794Z,47.33
2022-09-06T14:09:06.435Z,47.42
2022-09-06T14:11:35.016Z,46.40
2022-09-06T14:14:02.067Z,46.66
2022-09-06T14:16:29.930Z,47.45
2022-09-06T14:18:57.220Z,47.70
2022-09-06T14:21:24.250Z,47.28
2022-09-06T14:23:52.643Z,46.58
2022-09-06T14:26:20.908Z,46.71
2022-09-06T14:28:48.160Z,45.92
2022-09-06T14:31:20.483Z,47.11
2022-09-06T14:33:48.436Z,46.47
2022-09-06T14:36:17.244Z,46.57
2022-09-06T14:38:45.102Z,46.67
2022-09-06T14:41:15.980Z,46.32
2022-09-06T14:43:44.090Z,47.36
2022-09-06T14:46:14.183Z,47.48
2022-09-06T14:48:42.527Z,47.33
2022-09-06T14:51:09.803Z,47.77
2022-09-06T14:53:43.491Z,47.64
2022-09-06T15:05:40.897Z,47.62
2022-09-06T15:08:07.923Z,48.50
2022-09-06T15:10:35.054Z,49.09
2022-09-06T15:13:02.156Z,50.15
2022-09-06T15:15:29.283Z,49.96
2022-09-06T15:17:56.952Z,49.79
2022-09-06T15:20:24.035Z,49.88
2022-09-06T15:23:03.855Z,50.08
2022-09-06T15:25:38.442Z,51.03
2022-09-06T15:28:05.486Z,50.85
2022-09-06T15:30:32.556Z,50.58
2022-09-06T15:32:59.583Z,51.38
2022-09-06T15:35:26.644Z,51.90
2022-09-06T15:37:53.749Z,50.71
2022-09-06T15:40:21.741Z,51.69
2022-09-06T15:42:48.826Z,51.50
2022-09-06T15:45:15.902Z,52.35
2022-09-06T15:47:43.271Z,52.29
2022-09-06T15:50:10.341Z,52.99
2022-09-06T15:52:37.448Z,52.08
2022-09-06T15:55:23.175Z,52.28
2022-09-06T15:57:50.273Z,51.90
2022-09-06T16:00:21.794Z,52.30
2022-09-06T16:02:49.284Z,51.85
2022-09-06T16:05:17.442Z,51.73
2022-09-06T16:07:44.680Z,52.77
2022-09-06T16:10:12.272Z,52.03
2022-09-06T16:12:39.314Z,52.19
2022-09-06T16:15:06.657Z,52.76
2022-09-06T16:17:33.922Z,53.50
2022-09-06T16:20:01.642Z,53.36
2022-09-06T16:22:30.690Z,53.45
2022-09-06T16:24:57.804Z,53.75
2022-09-06T16:27:24.871Z,53.91
2022-09-06T16:29:52.610Z,55.41
2022-09-06T16:32:19.734Z,54.30
2022-09-06T16:34:46.914Z,54.23
2022-09-06T16:37:14.042Z,54.50
2022-09-06T16:39:41.167Z,54.29
2022-09-06T16:42:08.429Z,54.37
2022-09-06T16:44:35.514Z,54.43
2022-09-06T16:47:04.099Z,54.44
2022-09-06T16:49:31.223Z,54.30
2022-09-06T16:51:58.323Z,54.24
2022-09-06T16:54:25.486Z,54.37
2022-09-06T16:56:54.733Z,54.48
2022-09-06T16:59:21.856Z,54.73
2022-09-06T17:01:49.294Z,54.54
2022-09-06T17:04:16.631Z,54.44
2022-09-06T17:06:46.882Z,54.55
2022-09-06T17:09:15.464Z,54.45
2022-09-06T17:11:42.709Z,54.44
2022-09-06T17:14:09.869Z,54.64
2022-09-06T17:16:55.593Z,54.72
2022-09-06T17:19:22.710Z,55.26
2022-09-06T17:21:50.754Z,55.34
2022-09-06T17:24:17.931Z,55.88
2022-09-06T17:26:44.955Z,56.15
2022-09-06T17:29:12.176Z,56.48
2022-09-06T17:31:39.265Z,56.95
2022-09-06T17:34:07.648Z,57.62
2022-09-06T17:36:35.194Z,58.56
2022-09-06T17:39:04.462Z,58.17
2022-09-06T17:41:39.315Z,59.08
2022-09-06T17:44:07.666Z,58.65
2022-09-06T17:46:34.730Z,58.88
2022-09-06T17:49:01.981Z,59.44
2022-09-06T17:51:29.088Z,59.38
2022-09-06T17:53:56.562Z,59.72
2022-09-06T17:56:24.171Z,59.71
2022-09-06T17:58:55.269Z,59.77
2022-09-06T18:01:24.449Z,59.82
2022-09-06T18:03:52.068Z,59.92
2022-09-06T18:06:20.530Z,60.17
2022-09-06T18:08:50.506Z,60.34
2022-09-06T18:11:20.890Z,60.62
2022-09-06T18:13:57.789Z,60.78
2022-09-06T18:16:25.394Z,60.77
2022-09-06T18:18:54.536Z,61.16
2022-09-06T18:21:22.202Z,61.10
2022-09-06T18:23:49.347Z,61.03
2022-09-06T18:26:17.022Z,60.90
2022-09-06T18:28:44.425Z,61.15
2022-09-06T18:31:12.907Z,61.27
2022-09-06T18:33:40.942Z,61.25
2022-09-06T18:36:09.243Z,60.95
2022-09-06T18:38:37.368Z,60.87
2022-09-06T18:41:05.661Z,61.11
2022-09-06T18:43:33.932Z,61.42
2022-09-06T18:46:03.721Z,61.40
2022-09-06T18:48:33.593Z,61.37
2022-09-06T18:51:18.237Z,61.32
2022-09-06T18:53:45.326Z,61.25
2022-09-06T18:56:13.371Z,61.15
2022-09-06T18:58:40.958Z,61.38
2022-09-06T19:01:09.409Z,61.16
2022-09-06T19:03:39.543Z,61.45
2022-09-06T19:06:16.272Z,61.34
2022-09-06T19:08:43.650Z,61.59
2022-09-06T19:11:12.682Z,61.39
2022-09-06T19:13:41.481Z,61.31
2022-09-06T19:16:09.723Z,61.55
2022-09-06T19:18:37.287Z,61.66
2022-09-06T19:21:05.217Z,61.42
2022-09-06T19:23:33.485Z,61.64
2022-09-06T19:26:04.454Z,61.95
2022-09-06T19:28:31.817Z,61.85
2022-09-06T19:30:59.131Z,62.17
2022-09-06T19:33:27.151Z,62.33
2022-09-06T19:36:10.436Z,62.02
2022-09-06T19:39:01.592Z,62.16
2022-09-06T19:41:25.915Z,62.54
2022-09-06T19:43:53.653Z,62.51
2022-09-06T19:46:21.233Z,62.66
2022-09-06T19:48:49.141Z,63.09
2022-09-06T19:51:17.037Z,62.95
2022-09-06T19:53:47.068Z,63.43
2022-09-06T19:56:15.412Z,63.68
2022-09-06T19:58:43.287Z,63.71
2022-09-06T20:01:11.745Z,64.07
2022-09-06T20:03:39.457Z,64.14
2022-09-06T20:06:09.725Z,64.04
2022-09-06T20:08:37.417Z,64.49
2022-09-06T20:11:05.791Z,64.74
2022-09-06T20:13:34.884Z,65.19
2022-09-06T20:16:05.839Z,64.93
2022-09-06T20:18:33.835Z,65.20
2022-09-06T20:21:01.301Z,65.09
2022-09-06T20:23:29.175Z,65.26
2022-09-06T20:26:03.717Z,65.36
2022-09-06T20:28:31.251Z,65.76
2022-09-06T20:31:00.448Z,65.62
2022-09-06T20:33:27.884Z,66.79
2022-09-06T20:35:59.327Z,67.12
2022-09-06T20:38:26.520Z,66.48
2022-09-06T20:40:57.140Z,66.66
2022-09-06T20:43:24.286Z,66.52
2022-09-06T20:45:51.334Z,66.81
2022-09-06T20:48:18.503Z,67.53
2022-09-06T20:50:45.556Z,67.55
2022-09-06T20:53:12.567Z,67.96
2022-09-06T20:55:39.678Z,67.82
2022-09-06T20:58:06.743Z,67.54
2022-09-06T21:00:33.974Z,67.43
2022-09-06T21:03:01.151Z,67.49
2022-09-06T21:05:28.237Z,67.88
2022-09-06T21:07:55.281Z,67.79
2022-09-06T21:10:22.299Z,67.46
2022-09-06T21:12:49.979Z,67.79
2022-09-06T21:15:17.016Z,67.98
2022-09-06T21:17:44.710Z,68.30
2022-09-06T21:20:11.812Z,68.63
2022-09-06T21:22:38.890Z,68.89
2022-09-06T21:25:06.008Z,68.87
2022-09-06T21:27:33.090Z,69.10
2022-09-06T21:30:00.190Z,69.06
2022-09-06T21:32:27.241Z,69.30
2022-09-06T21:34:54.371Z,69.02
2022-09-06T21:37:21.409Z,69.31
2022-09-06T21:39:49.217Z,69.55
2022-09-06T21:42:17.171Z,69.71
2022-09-06T21:44:44.251Z,69.88
2022-09-06T21:47:11.440Z,69.71
2022-09-06T21:49:38.568Z,69.79
2022-09-06T21:52:05.655Z,70.06
2022-09-06T21:54:32.894Z,71.61
2022-09-06T21:56:59.967Z,72.80
2022-09-06T21:59:26.997Z,73.29
2022-09-06T22:01:54.393Z,73.12
2022-09-06T22:04:21.528Z,73.00
2022-09-06T22:06:48.584Z,73.37
2022-09-06T22:09:15.645Z,72.96
2022-09-06T22:11:43.589Z,73.50
2022-09-06T22:14:12.132Z,73.53
2022-09-06T22:16:40.385Z,73.90
2022-09-06T22:19:08.972Z,73.85
2022-09-06T22:21:36.421Z,73.65
2022-09-06T22:24:04.952Z,73.82
2022-09-06T22:26:33.491Z,74.05
2022-09-06T22:29:01.746Z,73.75
2022-09-06T22:31:29.558Z,74.08
2022-09-06T22:33:57.204Z,74.33
2022-09-06T22:36:25.567Z,74.45
2022-09-06T22:38:57.043Z,74.93
2022-09-06T22:41:29.153Z,75.91
2022-09-06T22:43:56.406Z,75.72
2022-09-06T22:46:23.540Z,76.34
2022-09-06T22:48:50.643Z,76.20
2022-09-06T22:51:17.791Z,77.13
2022-09-06T22:53:44.974Z,77.79
2022-09-06T22:56:12.050Z,77.81
2022-09-06T22:58:39.177Z,77.43
2022-09-06T23:01:08.066Z,78.05
2022-09-06T23:03:35.447Z,78.20
2022-09-06T23:06:02.935Z,78.49
2022-09-06T23:08:30.616Z,78.77
2022-09-06T23:10:57.725Z,78.78
2022-09-06T23:13:24.758Z,78.71
2022-09-06T23:15:51.937Z,79.02
2022-09-06T23:18:19.305Z,79.70
2022-09-06T23:20:46.460Z,80.04
2022-09-06T23:23:13.660Z,79.39
2022-09-06T23:25:40.776Z,78.89
2022-09-06T23:28:07.853Z,79.37
2022-09-06T23:30:36.572Z,79.40
2022-09-06T23:33:03.683Z,79.71
2022-09-06T23:35:30.774Z,79.68
2022-09-06T23:37:57.869Z,79.39
2022-09-06T23:40:24.998Z,79.39
2022-09-06T23:42:52.048Z,79.47
2022-09-06T23:45:19.214Z,79.36
2022-09-06T23:47:46.334Z,79.15
2022-09-06T23:50:13.529Z,79.20
2022-09-06T23:52:40.575Z,79.64
2022-09-06T23:55:09.343Z,80.27
2022-09-06T23:57:36.917Z,81.28
